Keith, United Kingdom
Current Conditions -  °F | °C
As of 10:50 PM on Thursday 20 Nov 2014 (Local Time) from EGQS Reporting Station
Broken Clouds Broken Clouds  
Wind Chill: 45°   Ceiling: 4500
Heat Index: 48°   Visibility: 6mi
Dew Point: 43°   Wind: 8mph
Humidity: 82%   Direction: 120°ESE
Pressure: 30.27"   Gusts: NA
Location:  57.54°N, 2.95°W
Report Text: EGQS 202250Z 12007KT 9999 BKN045 09/06 Q1025 BLU
Loading
Personal Weather Stations






























Interactive Weather Map New forecast layout! Learn more

10-Day Weather Forecast

Advertisements
Track Severe Weather on mobile